Time;durP1;ratioP1;P1;durP2;ratioP2;P2;SDS_P1;SDS_P2;PMS_P1;PMS_P2;Temp;Humidity;BMP_temperature;BMP_pressure;BME280_temperature;BME280_humidity;BME280_pressure;Samples;Min_cycle;Max_cycle;Signal;HPM_P1;HPM_P2
2023/04/14 00:01:39;;;;;;;;;;;21.50;51.20;;;;;;1557162;75;668;-65
2023/04/14 00:03:42;;;;;;;;;;;21.50;51.20;;;;;;1545968;75;1113;-64
2023/04/14 00:05:44;;;;;;;;;;;21.50;51.20;;;;;;1563812;75;715;-65
2023/04/14 00:07:45;;;;;;;;;;;21.40;51.00;;;;;;1564275;75;818;-64
2023/04/14 00:09:47;;;;;;;;;;;21.40;51.00;;;;;;1558184;75;1539;-66
2023/04/14 00:11:49;;;;;;;;;;;21.40;51.00;;;;;;1550513;75;1935;-66
2023/04/14 00:13:51;;;;;;;;;;;21.40;51.40;;;;;;1556544;75;1111;-66
2023/04/14 00:15:54;;;;;;;;;;;21.40;51.60;;;;;;1554802;75;734;-66
2023/04/14 00:17:56;;;;;;;;;;;21.30;51.60;;;;;;1555645;75;719;-66
2023/04/14 00:19:57;;;;;;;;;;;21.30;51.60;;;;;;1558147;75;1106;-66
2023/04/14 00:22:00;;;;;;;;;;;21.30;51.90;;;;;;1549665;75;729;-66
2023/04/14 00:24:01;;;;;;;;;;;21.20;51.90;;;;;;1543789;75;1658;-66
2023/04/14 00:26:04;;;;;;;;;;;21.20;51.70;;;;;;1559669;75;721;-66
2023/04/14 00:28:06;;;;;;;;;;;21.20;51.70;;;;;;1544970;75;716;-66
2023/04/14 00:30:08;;;;;;;;;;;21.20;51.70;;;;;;1556936;75;746;-66
2023/04/14 00:32:10;;;;;;;;;;;21.20;51.50;;;;;;1559378;75;1935;-67
2023/04/14 00:34:12;;;;;;;;;;;21.20;51.60;;;;;;1555010;74;1190;-67
2023/04/14 00:36:14;;;;;;;;;;;21.20;51.80;;;;;;1541917;75;645;-67
2023/04/14 00:38:16;;;;;;;;;;;21.20;51.60;;;;;;1560430;75;1414;-67
2023/04/14 00:40:17;;;;;;;;;;;21.20;51.70;;;;;;1559227;75;684;-67
2023/04/14 00:42:19;;;;;;;;;;;21.20;52.10;;;;;;1558334;75;768;-67
2023/04/14 00:44:22;;;;;;;;;;;21.20;51.90;;;;;;1549323;75;1132;-67
2023/04/14 00:46:24;;;;;;;;;;;21.20;51.90;;;;;;1545059;75;743;-65
2023/04/14 00:48:26;;;;;;;;;;;21.20;51.90;;;;;;1546426;75;669;-65
2023/04/14 00:50:28;;;;;;;;;;;21.20;51.80;;;;;;1563762;75;742;-67
2023/04/14 00:52:30;;;;;;;;;;;21.30;51.80;;;;;;1540760;75;1936;-66
2023/04/14 00:54:32;;;;;;;;;;;21.20;51.70;;;;;;1550882;75;1110;-66
2023/04/14 00:56:34;;;;;;;;;;;21.20;51.80;;;;;;1545832;75;768;-66
2023/04/14 00:58:36;;;;;;;;;;;21.30;51.80;;;;;;1547176;75;794;-65
2023/04/14 01:00:38;;;;;;;;;;;21.30;51.70;;;;;;1544634;75;724;-66
2023/04/14 01:02:40;;;;;;;;;;;21.30;51.70;;;;;;1548205;75;767;-67
2023/04/14 01:04:42;;;;;;;;;;;21.30;51.70;;;;;;1557915;75;1587;-66
2023/04/14 01:06:44;;;;;;;;;;;21.30;51.90;;;;;;1552617;75;704;-67
2023/04/14 01:08:46;;;;;;;;;;;21.30;51.80;;;;;;1540769;75;734;-66
2023/04/14 01:10:49;;;;;;;;;;;21.30;51.60;;;;;;1551820;75;711;-67
2023/04/14 01:13:02;;;;;;;;;;;21.30;51.70;;;;;;1554620;75;1943;-66
2023/04/14 01:15:08;;;;;;;;;;;21.30;51.70;;;;;;1557065;75;1869;-66
2023/04/14 01:17:14;;;;;;;;;;;21.30;51.50;;;;;;1552356;75;1768;-66
2023/04/14 01:19:18;;;;;;;;;;;21.30;51.50;;;;;;1549241;75;1826;-66
2023/04/14 01:21:23;;;;;;;;;;;21.30;51.50;;;;;;1556188;75;1767;-65
2023/04/14 01:23:26;;;;;;;;;;;21.30;51.50;;;;;;1550532;76;756;-66
2023/04/14 01:25:32;;;;;;;;;;;21.30;51.40;;;;;;1546521;76;2007;-66
2023/04/14 01:27:36;;;;;;;;;;;21.40;51.30;;;;;;1528221;76;642;-66
2023/04/14 01:29:51;;;;;;;;;;;21.40;51.10;;;;;;1531998;76;688;-66
2023/04/14 01:31:54;;;;;;;;;;;21.40;51.30;;;;;;1529958;76;748;-66
2023/04/14 01:33:58;;;;;;;;;;;21.50;51.20;;;;;;1545702;74;1919;-66
2023/04/14 01:36:00;;;;;;;;;;;21.50;51.00;;;;;;1539466;76;703;-66
2023/04/14 01:38:09;;;;;;;;;;;21.60;50.90;;;;;;1537409;76;883;-66
2023/04/14 01:40:12;;;;;;;;;;;21.60;50.80;;;;;;1544869;76;723;-66
2023/04/14 01:42:16;;;;;;;;;;;21.60;50.70;;;;;;1540600;76;637;-66
2023/04/14 01:44:18;;;;;;;;;;;21.60;50.60;;;;;;1541622;76;1975;-66
2023/04/14 01:46:20;;;;;;;;;;;21.60;50.50;;;;;;1537000;76;728;-66
2023/04/14 01:48:23;;;;;;;;;;;21.70;50.50;;;;;;1543138;76;1459;-67
2023/04/14 01:50:25;;;;;;;;;;;21.70;50.50;;;;;;1555050;76;702;-67
2023/04/14 01:52:27;;;;;;;;;;;21.60;50.50;;;;;;1550354;76;1925;-67
2023/04/14 01:54:29;;;;;;;;;;;21.50;50.60;;;;;;1532621;76;1118;-66
2023/04/14 01:56:31;;;;;;;;;;;21.50;50.90;;;;;;1546190;76;747;-67
2023/04/14 01:58:33;;;;;;;;;;;21.50;51.00;;;;;;1543207;76;690;-67
2023/04/14 02:00:35;;;;;;;;;;;21.40;51.00;;;;;;1547914;76;673;-67
2023/04/14 02:02:37;;;;;;;;;;;21.40;51.10;;;;;;1540956;76;1440;-66
2023/04/14 02:04:39;;;;;;;;;;;21.40;51.20;;;;;;1536618;76;1145;-66
2023/04/14 02:06:41;;;;;;;;;;;21.40;51.20;;;;;;1539738;76;706;-67
2023/04/14 02:08:43;;;;;;;;;;;21.30;51.30;;;;;;1553004;76;751;-67
2023/04/14 02:10:45;;;;;;;;;;;21.30;51.00;;;;;;1548472;76;792;-66
2023/04/14 02:12:47;;;;;;;;;;;21.40;51.00;;;;;;1530720;76;1933;-65
2023/04/14 02:14:49;;;;;;;;;;;21.40;50.70;;;;;;1523143;76;1158;-64
2023/04/14 02:16:51;;;;;;;;;;;21.40;50.80;;;;;;1542482;76;1427;-65
2023/04/14 02:18:53;;;;;;;;;;;21.50;50.80;;;;;;1542690;76;724;-65
2023/04/14 02:20:55;;;;;;;;;;;21.50;50.80;;;;;;1551651;75;1118;-65
2023/04/14 02:22:57;;;;;;;;;;;21.50;51.00;;;;;;1540767;75;715;-67
2023/04/14 02:24:59;;;;;;;;;;;21.50;50.90;;;;;;1542844;75;1188;-67
2023/04/14 02:27:02;;;;;;;;;;;21.50;50.80;;;;;;1548342;75;708;-67
2023/04/14 02:29:06;;;;;;;;;;;21.50;50.70;;;;;;1544751;75;1660;-66
2023/04/14 02:31:08;;;;;;;;;;;21.60;50.60;;;;;;1552171;75;1819;-67
2023/04/14 02:33:11;;;;;;;;;;;21.60;50.50;;;;;;1556403;75;1931;-66
2023/04/14 02:35:15;;;;;;;;;;;21.50;50.60;;;;;;1546240;75;1094;-66
2023/04/14 02:37:19;;;;;;;;;;;21.60;50.50;;;;;;1546549;75;716;-67
2023/04/14 02:39:23;;;;;;;;;;;21.50;50.50;;;;;;1553377;75;1773;-67
2023/04/14 02:41:25;;;;;;;;;;;21.60;50.50;;;;;;1561525;75;707;-68
2023/04/14 02:43:28;;;;;;;;;;;21.50;50.60;;;;;;1551536;75;1333;-68
2023/04/14 02:45:31;;;;;;;;;;;21.50;50.60;;;;;;1561932;74;1142;-68
2023/04/14 02:47:34;;;;;;;;;;;21.50;50.60;;;;;;1559469;75;703;-68
2023/04/14 02:49:36;;;;;;;;;;;21.40;50.70;;;;;;1537316;75;607;-66
2023/04/14 02:51:38;;;;;;;;;;;21.40;50.60;;;;;;1554453;75;661;-66
2023/04/14 02:53:40;;;;;;;;;;;21.50;50.70;;;;;;1559880;74;1940;-66
2023/04/14 02:55:42;;;;;;;;;;;21.50;50.50;;;;;;1549764;75;729;-66
2023/04/14 02:57:44;;;;;;;;;;;21.60;50.40;;;;;;1546277;75;1379;-66
2023/04/14 02:59:46;;;;;;;;;;;21.60;50.30;;;;;;1550814;75;741;-65
2023/04/14 03:01:48;;;;;;;;;;;21.60;50.20;;;;;;1554917;75;719;-66
2023/04/14 03:03:50;;;;;;;;;;;21.60;50.10;;;;;;1533387;75;1101;-66
2023/04/14 03:05:51;;;;;;;;;;;21.60;50.00;;;;;;1541623;75;807;-66
2023/04/14 03:07:53;;;;;;;;;;;21.70;50.10;;;;;;1554257;75;696;-65
2023/04/14 03:09:55;;;;;;;;;;;21.60;50.00;;;;;;1557478;75;792;-65
2023/04/14 03:11:57;;;;;;;;;;;21.70;50.00;;;;;;1561797;75;1543;-65
2023/04/14 03:13:59;;;;;;;;;;;21.70;49.90;;;;;;1544787;75;1919;-66
2023/04/14 03:16:02;;;;;;;;;;;21.60;50.00;;;;;;1541724;75;766;-66
2023/04/14 03:18:04;;;;;;;;;;;21.60;50.10;;;;;;1554911;75;721;-67
2023/04/14 03:20:06;;;;;;;;;;;21.60;50.30;;;;;;1559620;75;705;-66
2023/04/14 03:22:08;;;;;;;;;;;21.50;50.20;;;;;;1537489;75;1113;-66
2023/04/14 03:24:13;;;;;;;;;;;21.50;50.50;;;;;;1544298;75;1196;-66
2023/04/14 03:26:17;;;;;;;;;;;21.40;50.80;;;;;;1542409;76;1672;-65
2023/04/14 03:28:19;;;;;;;;;;;21.40;51.10;;;;;;1543552;76;1663;-65
2023/04/14 03:30:21;;;;;;;;;;;21.40;51.00;;;;;;1549838;76;737;-65
2023/04/14 03:32:23;;;;;;;;;;;21.40;51.00;;;;;;1556353;76;911;-65
2023/04/14 03:34:24;;;;;;;;;;;21.40;50.80;;;;;;1545549;76;1932;-64
2023/04/14 03:36:26;;;;;;;;;;;21.60;50.90;;;;;;1545141;76;797;-65
2023/04/14 03:38:28;;;;;;;;;;;21.60;50.80;;;;;;1543315;76;731;-65
2023/04/14 03:40:30;;;;;;;;;;;21.60;50.80;;;;;;1547479;76;1531;-65
2023/04/14 03:42:32;;;;;;;;;;;21.60;50.70;;;;;;1545594;76;548;-65
2023/04/14 03:44:35;;;;;;;;;;;21.60;50.70;;;;;;1539243;76;1148;-65
2023/04/14 03:46:37;;;;;;;;;;;21.70;50.50;;;;;;1548968;76;717;-65
2023/04/14 03:48:41;;;;;;;;;;;21.70;50.40;;;;;;1542059;76;714;-66
2023/04/14 03:50:44;;;;;;;;;;;21.60;50.30;;;;;;1543734;76;1677;-66
2023/04/14 03:52:46;;;;;;;;;;;21.60;50.60;;;;;;1549586;76;690;-66
2023/04/14 03:54:48;;;;;;;;;;;21.60;50.70;;;;;;1551623;75;1912;-66
2023/04/14 03:56:50;;;;;;;;;;;21.60;50.70;;;;;;1552313;76;595;-66
2023/04/14 03:58:53;;;;;;;;;;;21.70;50.80;;;;;;1482861;79;740;-66
2023/04/14 04:00:55;;;;;;;;;;;21.70;50.70;;;;;;1482955;78;754;-65
2023/04/14 04:02:57;;;;;;;;;;;21.70;50.70;;;;;;1563507;75;738;-65
2023/04/14 04:04:59;;;;;;;;;;;21.60;50.60;;;;;;1554228;75;1126;-65
2023/04/14 04:07:01;;;;;;;;;;;21.60;50.70;;;;;;1550062;75;769;-65
2023/04/14 04:09:03;;;;;;;;;;;21.60;51.00;;;;;;1558172;75;1355;-65
2023/04/14 04:11:06;;;;;;;;;;;21.50;50.90;;;;;;1560947;75;715;-64
2023/04/14 04:13:12;;;;;;;;;;;21.50;50.90;;;;;;1560709;75;1931;-63
2023/04/14 04:15:15;;;;;;;;;;;21.50;50.80;;;;;;1543338;75;1131;-66
2023/04/14 04:17:17;;;;;;;;;;;21.60;50.70;;;;;;1562565;75;764;-66
2023/04/14 04:19:20;;;;;;;;;;;21.60;50.50;;;;;;1551334;75;769;-64
2023/04/14 04:21:22;;;;;;;;;;;21.70;50.50;;;;;;1558123;75;775;-65
2023/04/14 04:23:24;;;;;;;;;;;21.60;50.40;;;;;;1553149;75;1652;-64
2023/04/14 04:25:26;;;;;;;;;;;21.60;50.40;;;;;;1553178;75;1111;-65
2023/04/14 04:27:28;;;;;;;;;;;21.60;50.50;;;;;;1553049;75;682;-65
2023/04/14 04:29:30;;;;;;;;;;;21.60;50.50;;;;;;1560206;75;761;-65
2023/04/14 04:31:32;;;;;;;;;;;21.60;50.60;;;;;;1544592;75;765;-64
2023/04/14 04:33:33;;;;;;;;;;;21.50;50.50;;;;;;1558344;75;1931;-64
2023/04/14 04:35:36;;;;;;;;;;;21.50;50.50;;;;;;1558100;75;1570;-64
2023/04/14 04:37:38;;;;;;;;;;;21.60;50.50;;;;;;1551163;75;647;-64
2023/04/14 04:39:40;;;;;;;;;;;21.60;50.40;;;;;;1561509;75;755;-65
2023/04/14 04:41:42;;;;;;;;;;;21.50;50.40;;;;;;1558786;75;764;-64
2023/04/14 04:43:43;;;;;;;;;;;21.50;50.50;;;;;;1538307;75;1123;-64
2023/04/14 04:45:49;;;;;;;;;;;21.50;50.50;;;;;;1548852;75;777;-64
2023/04/14 04:47:51;;;;;;;;;;;21.60;50.50;;;;;;1545849;75;677;-65
2023/04/14 04:49:53;;;;;;;;;;;21.50;50.50;;;;;;1557145;75;1460;-64
2023/04/14 04:51:59;;;;;;;;;;;21.50;50.50;;;;;;1547985;75;711;-65
2023/04/14 04:53:58;;;;;;;;;;;21.50;50.40;;;;;;1557491;75;1929;-66
2023/04/14 04:56:01;;;;;;;;;;;21.50;50.50;;;;;;1535036;75;810;-64
2023/04/14 04:58:03;;;;;;;;;;;21.50;50.50;;;;;;1565754;75;562;-63
2023/04/14 05:00:06;;;;;;;;;;;21.60;50.30;;;;;;1556178;75;674;-64
2023/04/14 05:02:07;;;;;;;;;;;21.50;50.20;;;;;;1539525;75;653;-64
2023/04/14 05:04:10;;;;;;;;;;;21.60;50.20;;;;;;1548699;75;1391;-64
2023/04/14 05:06:12;;;;;;;;;;;21.50;50.30;;;;;;1549696;75;676;-67
2023/04/14 05:08:14;;;;;;;;;;;21.40;50.50;;;;;;1566607;75;664;-67
2023/04/14 05:10:16;;;;;;;;;;;21.40;50.60;;;;;;1565412;75;692;-67
2023/04/14 05:12:18;;;;;;;;;;;21.40;50.70;;;;;;1564714;75;758;-67
2023/04/14 05:14:20;;;;;;;;;;;21.40;50.80;;;;;;1553817;75;1940;-67
2023/04/14 05:16:22;;;;;;;;;;;21.40;50.90;;;;;;1545608;75;710;-65
2023/04/14 05:18:25;;;;;;;;;;;21.30;51.00;;;;;;1558665;75;1359;-64
2023/04/14 05:20:27;;;;;;;;;;;21.40;51.30;;;;;;1563842;75;961;-65
2023/04/14 05:22:29;;;;;;;;;;;21.30;51.30;;;;;;1549755;75;716;-64
2023/04/14 05:24:31;;;;;;;;;;;21.30;51.40;;;;;;1547326;75;1191;-64
2023/04/14 05:26:33;;;;;;;;;;;21.30;51.50;;;;;;1545595;75;742;-66
2023/04/14 05:28:35;;;;;;;;;;;21.20;51.30;;;;;;1553674;75;685;-65
2023/04/14 05:30:37;;;;;;;;;;;21.20;51.30;;;;;;1562231;75;735;-65
2023/04/14 05:32:39;;;;;;;;;;;21.20;51.10;;;;;;1559172;75;1594;-64
2023/04/14 05:34:41;;;;;;;;;;;21.20;51.00;;;;;;1559717;75;1942;-64
2023/04/14 05:36:43;;;;;;;;;;;21.30;51.10;;;;;;1558799;75;811;-65
2023/04/14 05:38:45;;;;;;;;;;;21.30;51.40;;;;;;1553489;75;751;-65
2023/04/14 05:40:47;;;;;;;;;;;21.20;51.10;;;;;;1556279;75;710;-63
2023/04/14 05:42:49;;;;;;;;;;;21.30;51.60;;;;;;1561802;75;704;-66
2023/04/14 05:44:51;;;;;;;;;;;21.30;51.50;;;;;;1554129;75;1126;-64
2023/04/14 05:46:53;;;;;;;;;;;21.30;51.50;;;;;;1544579;75;1512;-65
2023/04/14 05:48:56;;;;;;;;;;;21.40;51.40;;;;;;1554865;75;738;-65
2023/04/14 05:50:58;;;;;;;;;;;21.40;51.30;;;;;;1554910;75;762;-66
2023/04/14 05:53:00;;;;;;;;;;;21.40;51.20;;;;;;1550386;75;727;-66
2023/04/14 05:55:02;;;;;;;;;;;21.50;51.30;;;;;;1552167;75;1953;-65
2023/04/14 05:57:04;;;;;;;;;;;21.50;51.20;;;;;;1560613;75;678;-65
2023/04/14 05:59:06;;;;;;;;;;;21.50;51.10;;;;;;1549280;75;627;-65
2023/04/14 06:01:09;;;;;;;;;;;21.50;51.20;;;;;;1547750;75;1309;-65
2023/04/14 06:03:11;;;;;;;;;;;21.50;51.20;;;;;;1554775;75;747;-65
2023/04/14 06:05:13;;;;;;;;;;;21.50;51.20;;;;;;1554928;75;1068;-64
2023/04/14 06:07:15;;;;;;;;;;;21.50;51.20;;;;;;1556450;75;802;-64
2023/04/14 06:09:17;;;;;;;;;;;21.60;51.40;;;;;;1561122;75;770;-63
2023/04/14 06:11:19;;;;;;;;;;;21.50;51.60;;;;;;1562482;75;594;-64
2023/04/14 06:13:21;;;;;;;;;;;21.50;51.70;;;;;;1561746;75;764;-64
2023/04/14 06:15:27;;;;;;;;;;;21.40;51.60;;;;;;1558353;75;1966;-62
2023/04/14 06:17:27;;;;;;;;;;;21.50;51.80;;;;;;1551233;75;1769;-67
2023/04/14 06:19:29;;;;;;;;;;;21.40;51.80;;;;;;1553808;75;738;-66
2023/04/14 06:21:31;;;;;;;;;;;21.50;51.90;;;;;;1551496;75;755;-65
2023/04/14 06:23:33;;;;;;;;;;;21.50;51.90;;;;;;1543475;75;1148;-62
2023/04/14 06:25:34;;;;;;;;;;;21.50;51.90;;;;;;1550654;75;629;-63
2023/04/14 06:27:37;;;;;;;;;;;21.50;51.80;;;;;;1563627;75;652;-65
2023/04/14 06:29:39;;;;;;;;;;;21.50;52.00;;;;;;1565977;75;1607;-63
2023/04/14 06:31:41;;;;;;;;;;;21.40;51.90;;;;;;1555269;75;710;-66
2023/04/14 06:33:42;;;;;;;;;;;21.50;51.90;;;;;;1564178;75;1183;-65
2023/04/14 06:35:44;;;;;;;;;;;21.40;51.90;;;;;;1554172;75;1944;-65
2023/04/14 06:37:46;;;;;;;;;;;21.40;51.80;;;;;;1562146;75;780;-64
2023/04/14 06:39:48;;;;;;;;;;;21.50;52.30;;;;;;1561019;75;670;-64
2023/04/14 06:41:50;;;;;;;;;;;21.50;51.50;;;;;;1545392;75;797;-64
2023/04/14 06:43:52;;;;;;;;;;;21.50;50.70;;;;;;1552616;74;1255;-64
2023/04/14 06:45:54;;;;;;;;;;;21.60;49.80;;;;;;1563945;75;1560;-64
2023/04/14 06:47:56;;;;;;;;;;;21.60;49.10;;;;;;1565968;75;1525;-63
2023/04/14 06:49:58;;;;;;;;;;;21.60;48.40;;;;;;1567407;75;1479;-64
2023/04/14 06:52:00;;;;;;;;;;;21.60;48.00;;;;;;1565207;75;1543;-63
2023/04/14 06:54:02;;;;;;;;;;;21.60;47.60;;;;;;1564697;75;1494;-64
2023/04/14 06:56:04;;;;;;;;;;;21.60;47.40;;;;;;1562859;75;1224;-64
2023/04/14 06:58:06;;;;;;;;;;;21.50;47.20;;;;;;1560023;75;1541;-63
2023/04/14 07:00:09;;;;;;;;;;;21.50;47.10;;;;;;1564980;75;1492;-63
2023/04/14 07:02:11;;;;;;;;;;;21.50;46.70;;;;;;1566791;74;1521;-63
2023/04/14 07:04:14;;;;;;;;;;;21.50;46.70;;;;;;1559540;75;1248;-63
2023/04/14 07:06:16;;;;;;;;;;;21.50;46.60;;;;;;1555288;75;1498;-64
2023/04/14 07:08:18;;;;;;;;;;;21.50;46.50;;;;;;1564106;75;1455;-64
2023/04/14 07:10:20;;;;;;;;;;;21.40;46.00;;;;;;1559490;75;1467;-63
2023/04/14 07:12:22;;;;;;;;;;;21.50;45.70;;;;;;1567050;75;1379;-63
2023/04/14 07:14:24;;;;;;;;;;;21.50;45.80;;;;;;1557804;75;1962;-63
2023/04/14 07:16:26;;;;;;;;;;;21.40;45.40;;;;;;1554721;75;1098;-63
2023/04/14 07:18:28;;;;;;;;;;;21.40;45.50;;;;;;1565949;75;1527;-63
2023/04/14 07:20:30;;;;;;;;;;;21.40;45.20;;;;;;1563283;75;1490;-64
2023/04/14 07:22:32;;;;;;;;;;;21.40;45.30;;;;;;1554868;75;1499;-64
2023/04/14 07:24:34;;;;;;;;;;;21.40;45.30;;;;;;1559101;75;1527;-64
2023/04/14 07:26:36;;;;;;;;;;;21.30;45.00;;;;;;1560769;75;1394;-63
2023/04/14 07:28:38;;;;;;;;;;;21.20;45.00;;;;;;1558728;75;1521;-64
2023/04/14 07:30:40;;;;;;;;;;;21.30;45.20;;;;;;1564363;75;1444;-63
2023/04/14 07:32:41;;;;;;;;;;;21.40;45.00;;;;;;1562421;75;1481;-63
2023/04/14 07:34:43;;;;;;;;;;;21.30;45.00;;;;;;1558819;75;1902;-64
2023/04/14 07:36:45;;;;;;;;;;;21.20;44.70;;;;;;1556593;75;1336;-63
2023/04/14 07:38:50;;;;;;;;;;;21.30;44.70;;;;;;1565513;75;1474;-64
2023/04/14 07:40:52;;;;;;;;;;;21.30;44.70;;;;;;1565584;75;1509;-64
2023/04/14 07:42:54;;;;;;;;;;;21.30;44.60;;;;;;1568125;75;1205;-63
2023/04/14 07:44:56;;;;;;;;;;;21.30;44.70;;;;;;1558632;75;1507;-63
2023/04/14 07:46:58;;;;;;;;;;;21.30;44.40;;;;;;1556159;75;1480;-64
2023/04/14 07:49:00;;;;;;;;;;;21.30;44.70;;;;;;1552923;75;1114;-65
2023/04/14 07:51:03;;;;;;;;;;;21.20;44.60;;;;;;1556917;74;1449;-63
2023/04/14 07:53:05;;;;;;;;;;;21.20;44.40;;;;;;1550266;74;1477;-63
2023/04/14 07:55:07;;;;;;;;;;;21.30;44.40;;;;;;1547270;74;1942;-64
2023/04/14 07:57:09;;;;;;;;;;;21.30;44.50;;;;;;1543362;74;1535;-63
2023/04/14 07:59:11;;;;;;;;;;;21.20;44.40;;;;;;1556554;75;1505;-63
2023/04/14 08:01:13;;;;;;;;;;;21.30;44.20;;;;;;1544296;75;1485;-63
2023/04/14 08:03:16;;;;;;;;;;;21.20;44.20;;;;;;1547827;75;1395;-63
2023/04/14 08:05:17;;;;;;;;;;;21.20;44.20;;;;;;1554157;75;1513;-64
2023/04/14 08:07:19;;;;;;;;;;;21.20;44.20;;;;;;1556812;75;1457;-63
2023/04/14 08:09:21;;;;;;;;;;;21.20;44.10;;;;;;1558280;74;1275;-63
2023/04/14 08:11:23;;;;;;;;;;;21.10;44.40;;;;;;1557105;74;1487;-64
2023/04/14 08:13:25;;;;;;;;;;;21.20;44.20;;;;;;1548946;74;1449;-64
2023/04/14 08:15:27;;;;;;;;;;;21.20;44.10;;;;;;1552369;74;1944;-64
2023/04/14 08:17:30;;;;;;;;;;;21.20;44.10;;;;;;1547918;74;1308;-64
2023/04/14 08:19:32;;;;;;;;;;;21.10;43.90;;;;;;1544492;74;1506;-64
2023/04/14 08:21:34;;;;;;;;;;;21.10;44.20;;;;;;1555230;74;1463;-64
2023/04/14 08:23:36;;;;;;;;;;;21.10;44.00;;;;;;1554868;74;1150;-64
2023/04/14 08:25:38;;;;;;;;;;;21.10;44.00;;;;;;1558449;75;1551;-64
2023/04/14 08:27:40;;;;;;;;;;;21.10;44.10;;;;;;1549033;74;1539;-63
2023/04/14 08:29:42;;;;;;;;;;;21.10;43.90;;;;;;1556509;75;1296;-63
2023/04/14 08:31:44;;;;;;;;;;;21.10;44.00;;;;;;1554200;75;1517;-64
2023/04/14 08:33:46;;;;;;;;;;;21.10;44.40;;;;;;1558429;74;1475;-64
2023/04/14 08:35:48;;;;;;;;;;;21.10;44.10;;;;;;1540432;75;1958;-63
2023/04/14 08:37:50;;;;;;;;;;;21.20;44.20;;;;;;1554812;75;1487;-63
2023/04/14 08:39:52;;;;;;;;;;;21.20;44.10;;;;;;1553310;74;1546;-65
2023/04/14 08:41:54;;;;;;;;;;;21.10;44.10;;;;;;1538799;75;1509;-64
2023/04/14 08:43:56;;;;;;;;;;;21.10;43.80;;;;;;1556012;75;1517;-64
2023/04/14 08:45:58;;;;;;;;;;;21.20;43.90;;;;;;1545096;75;1516;-64
2023/04/14 08:48:00;;;;;;;;;;;21.10;43.90;;;;;;1557539;75;1348;-64
2023/04/14 08:50:03;;;;;;;;;;;21.10;44.10;;;;;;1552260;75;1627;-64
2023/04/14 08:52:05;;;;;;;;;;;21.10;43.90;;;;;;1561068;74;1379;-63
2023/04/14 08:54:07;;;;;;;;;;;21.10;44.00;;;;;;1546432;75;1557;-64
2023/04/14 08:56:10;;;;;;;;;;;21.10;43.80;;;;;;1567462;75;1917;-63
2023/04/14 08:58:12;;;;;;;;;;;21.10;43.90;;;;;;1557143;74;1692;-64
2023/04/14 09:00:14;;;;;;;;;;;21.10;44.10;;;;;;1557560;74;1512;-63
2023/04/14 09:02:17;;;;;;;;;;;21.00;43.90;;;;;;1562397;75;1504;-64
2023/04/14 09:04:19;;;;;;;;;;;21.20;44.10;;;;;;1556136;74;1515;-64
2023/04/14 09:06:21;;;;;;;;;;;21.10;43.80;;;;;;1554098;75;1126;-64
2023/04/14 09:08:23;;;;;;;;;;;21.00;43.80;;;;;;1560081;74;1472;-64
2023/04/14 09:10:25;;;;;;;;;;;21.10;43.80;;;;;;1563853;74;1474;-65
2023/04/14 09:12:27;;;;;;;;;;;21.00;44.50;;;;;;1529271;76;1531;-65
2023/04/14 09:14:29;;;;;;;;;;;21.00;44.60;;;;;;1527324;76;1337;-65
2023/04/14 09:16:31;;;;;;;;;;;20.90;45.30;;;;;;1569308;75;1914;-65
2023/04/14 09:18:33;;;;;;;;;;;21.00;45.30;;;;;;1558197;74;1623;-65
2023/04/14 09:20:35;;;;;;;;;;;21.00;45.20;;;;;;1560957;75;1528;-65
2023/04/14 09:22:37;;;;;;;;;;;21.10;45.20;;;;;;1549791;74;1584;-65
2023/04/14 09:24:39;;;;;;;;;;;21.10;45.20;;;;;;1550947;74;1519;-65
2023/04/14 09:26:41;;;;;;;;;;;21.20;45.20;;;;;;1557532;74;1540;-65
2023/04/14 09:28:43;;;;;;;;;;;21.20;45.40;;;;;;1552206;75;1430;-65
2023/04/14 09:30:45;;;;;;;;;;;21.30;45.50;;;;;;1558811;74;1439;-65
2023/04/14 09:32:49;;;;;;;;;;;21.30;45.60;;;;;;1551234;74;1460;-65
2023/04/14 09:34:54;;;;;;;;;;;21.30;45.60;;;;;;1555147;75;1963;-65
2023/04/14 09:37:01;;;;;;;;;;;21.30;45.80;;;;;;1565439;74;1914;-65
2023/04/14 09:39:03;;;;;;;;;;;21.30;45.80;;;;;;1555400;75;1449;-65
2023/04/14 09:41:05;;;;;;;;;;;21.20;45.80;;;;;;1557559;74;1692;-65
2023/04/14 09:43:07;;;;;;;;;;;21.40;46.00;;;;;;1561508;74;1404;-66
2023/04/14 09:45:09;;;;;;;;;;;21.40;46.30;;;;;;1552283;74;1470;-66
2023/04/14 09:47:15;;;;;;;;;;;21.30;46.40;;;;;;1559834;75;1562;-65
2023/04/14 09:49:15;;;;;;;;;;;21.40;46.50;;;;;;1559150;74;1485;-66
2023/04/14 09:51:17;;;;;;;;;;;21.40;46.60;;;;;;1556786;74;1419;-65
2023/04/14 09:53:20;;;;;;;;;;;21.40;46.70;;;;;;1553407;74;996;-65
2023/04/14 09:55:22;;;;;;;;;;;21.40;46.90;;;;;;1549345;74;1954;-66
2023/04/14 09:57:29;;;;;;;;;;;21.40;47.00;;;;;;1544282;74;1556;-65
2023/04/14 09:59:32;;;;;;;;;;;21.50;47.10;;;;;;1553004;74;1661;-65
2023/04/14 10:01:35;;;;;;;;;;;21.50;47.20;;;;;;1560761;75;1499;-66
2023/04/14 10:03:41;;;;;;;;;;;21.40;47.30;;;;;;1560768;75;1496;-65
2023/04/14 10:05:46;;;;;;;;;;;21.40;47.30;;;;;;1545712;75;1471;-66
2023/04/14 10:07:48;;;;;;;;;;;21.40;47.50;;;;;;1561084;75;1521;-65
2023/04/14 10:09:50;;;;;;;;;;;21.40;47.60;;;;;;1554571;75;1455;-65
2023/04/14 10:12:14;;;;;;;;;;;21.50;47.80;;;;;;1549845;75;1525;-65
2023/04/14 10:14:16;;;;;;;;;;;21.40;47.80;;;;;;1551317;75;1541;-65
2023/04/14 10:16:18;;;;;;;;;;;21.40;47.90;;;;;;1555192;75;1923;-65
2023/04/14 10:18:20;;;;;;;;;;;21.50;48.10;;;;;;1554931;75;1484;-65
2023/04/14 10:20:22;;;;;;;;;;;21.50;48.10;;;;;;1561305;75;1507;-65
2023/04/14 10:22:26;;;;;;;;;;;21.50;48.10;;;;;;1557872;75;1387;-65
2023/04/14 10:24:27;;;;;;;;;;;21.50;48.20;;;;;;1551051;75;1659;-65
2023/04/14 10:26:30;;;;;;;;;;;21.50;48.10;;;;;;1555624;75;1349;-65
2023/04/14 10:28:32;;;;;;;;;;;21.50;48.10;;;;;;1549332;75;1488;-65
2023/04/14 10:30:34;;;;;;;;;;;21.50;48.30;;;;;;1552989;75;1116;-66
2023/04/14 10:32:36;;;;;;;;;;;21.50;48.30;;;;;;1557197;74;1489;-66
2023/04/14 10:34:38;;;;;;;;;;;21.40;48.30;;;;;;1558683;75;1520;-65
2023/04/14 10:36:40;;;;;;;;;;;21.50;48.80;;;;;;1548004;75;1936;-65
2023/04/14 10:38:42;;;;;;;;;;;21.50;48.70;;;;;;1551823;74;1498;-66
2023/04/14 10:40:47;;;;;;;;;;;21.50;48.90;;;;;;1547420;75;1396;-65
2023/04/14 10:42:55;;;;;;;;;;;21.50;49.00;;;;;;1562255;75;1579;-65
2023/04/14 10:45:04;;;;;;;;;;;21.50;48.90;;;;;;1558649;74;1498;-65
2023/04/14 10:47:09;;;;;;;;;;;21.50;49.10;;;;;;1545213;75;1444;-66
2023/04/14 10:49:12;;;;;;;;;;;21.40;49.40;;;;;;1553435;74;1541;-65
2023/04/14 10:51:16;;;;;;;;;;;21.40;49.20;;;;;;1555497;75;1498;-65
2023/04/14 10:53:18;;;;;;;;;;;21.30;48.60;;;;;;1556602;75;1485;-66
2023/04/14 10:55:23;;;;;;;;;;;21.40;48.60;;;;;;1548164;74;1538;-63
2023/04/14 10:57:25;;;;;;;;;;;21.30;48.80;;;;;;1547787;75;1927;-64
2023/04/14 10:59:28;;;;;;;;;;;21.40;48.90;;;;;;1553863;75;1438;-64
2023/04/14 11:01:30;;;;;;;;;;;21.30;48.90;;;;;;1554516;75;1548;-65
2023/04/14 11:03:33;;;;;;;;;;;21.30;49.20;;;;;;1552306;75;1475;-65
2023/04/14 11:05:35;;;;;;;;;;;21.30;49.10;;;;;;1525578;76;1612;-65
2023/04/14 11:07:43;;;;;;;;;;;21.30;48.90;;;;;;1551855;75;1499;-65
2023/04/14 11:09:46;;;;;;;;;;;21.30;48.90;;;;;;1551932;75;1425;-65
2023/04/14 11:11:48;;;;;;;;;;;21.40;49.00;;;;;;1545694;74;1581;-65
2023/04/14 11:13:51;;;;;;;;;;;21.40;48.90;;;;;;1554861;74;1155;-65
2023/04/14 11:15:55;;;;;;;;;;;21.30;49.00;;;;;;1542077;74;1951;-65
2023/04/14 11:17:57;;;;;;;;;;;21.40;49.00;;;;;;1548237;75;1576;-65
2023/04/14 11:19:59;;;;;;;;;;;21.40;49.00;;;;;;1521062;76;1434;-65
2023/04/14 11:22:01;;;;;;;;;;;21.40;49.10;;;;;;1552084;75;1501;-65
2023/04/14 11:24:03;;;;;;;;;;;21.40;49.10;;;;;;1550465;74;1512;-65
2023/04/14 11:26:05;;;;;;;;;;;21.40;49.10;;;;;;1525228;76;1531;-64
2023/04/14 11:28:07;;;;;;;;;;;21.50;49.10;;;;;;1556874;74;1516;-65
2023/04/14 11:30:11;;;;;;;;;;;21.40;49.00;;;;;;1546701;75;1466;-65
2023/04/14 11:32:13;;;;;;;;;;;21.40;49.10;;;;;;1548121;75;1986;-65
2023/04/14 11:34:15;;;;;;;;;;;21.40;49.10;;;;;;1547452;74;1494;-64
2023/04/14 11:36:17;;;;;;;;;;;21.40;49.00;;;;;;1548978;74;1935;-65
2023/04/14 11:38:19;;;;;;;;;;;21.40;49.10;;;;;;1552431;75;1589;-65
2023/04/14 11:40:21;;;;;;;;;;;21.30;49.20;;;;;;1556634;74;1530;-65
2023/04/14 11:42:23;;;;;;;;;;;21.30;49.20;;;;;;1554700;75;1444;-64
2023/04/14 11:44:25;;;;;;;;;;;21.40;49.20;;;;;;1540121;75;1565;-65
2023/04/14 11:46:27;;;;;;;;;;;21.40;49.20;;;;;;1554850;75;1503;-65
2023/04/14 11:48:29;;;;;;;;;;;21.40;49.20;;;;;;1558247;74;1090;-64
2023/04/14 11:50:32;;;;;;;;;;;21.30;49.20;;;;;;1569610;74;1352;-65
2023/04/14 11:52:33;;;;;;;;;;;21.50;49.40;;;;;;1562411;74;1530;-65
2023/04/14 11:54:38;;;;;;;;;;;21.40;49.30;;;;;;1559454;75;1539;-65
2023/04/14 11:56:40;;;;;;;;;;;21.40;49.30;;;;;;1557984;75;1920;-65
2023/04/14 11:58:42;;;;;;;;;;;21.40;49.40;;;;;;1552776;74;1350;-65
2023/04/14 12:00:44;;;;;;;;;;;21.40;49.30;;;;;;1559960;74;1533;-65
2023/04/14 12:02:46;;;;;;;;;;;21.40;49.40;;;;;;1561661;74;1491;-66
2023/04/14 12:04:49;;;;;;;;;;;21.40;49.40;;;;;;1561136;74;1397;-66
2023/04/14 12:06:50;;;;;;;;;;;21.40;49.30;;;;;;1558285;74;1552;-66